sensor_id;sensor_type;location;lat;lon;timestamp;P1;durP1;ratioP1;P2;durP2;ratioP2
31043;SDS011;17710;52.520;13.352;2022-11-20T00:00:01;14.60;;;9.45;;
31043;SDS011;17710;52.520;13.352;2022-11-20T00:02:27;18.23;;;9.73;;
31043;SDS011;17710;52.520;13.352;2022-11-20T00:04:54;20.95;;;9.98;;
31043;SDS011;17710;52.520;13.352;2022-11-20T00:07:22;17.63;;;9.90;;
31043;SDS011;17710;52.520;13.352;2022-11-20T00:09:49;18.02;;;9.60;;
31043;SDS011;17710;52.520;13.352;2022-11-20T00:12:15;15.60;;;9.20;;
31043;SDS011;17710;52.520;13.352;2022-11-20T00:14:41;17.05;;;9.75;;
31043;SDS011;17710;52.520;13.352;2022-11-20T00:17:08;21.23;;;10.18;;
31043;SDS011;17710;52.520;13.352;2022-11-20T00:19:35;15.00;;;8.52;;
31043;SDS011;17710;52.520;13.352;2022-11-20T00:22:01;16.83;;;9.40;;
31043;SDS011;17710;52.520;13.352;2022-11-20T00:24:29;16.75;;;9.38;;
31043;SDS011;17710;52.520;13.352;2022-11-20T00:26:55;22.23;;;10.82;;
31043;SDS011;17710;52.520;13.352;2022-11-20T00:29:22;18.13;;;9.90;;
31043;SDS011;17710;52.520;13.352;2022-11-20T00:31:48;18.15;;;8.85;;
31043;SDS011;17710;52.520;13.352;2022-11-20T00:34:14;15.77;;;9.38;;
31043;SDS011;17710;52.520;13.352;2022-11-20T00:36:41;13.57;;;8.05;;
31043;SDS011;17710;52.520;13.352;2022-11-20T00:39:07;16.63;;;8.88;;
31043;SDS011;17710;52.520;13.352;2022-11-20T00:41:35;18.52;;;9.43;;
31043;SDS011;17710;52.520;13.352;2022-11-20T00:44:01;19.77;;;8.98;;
31043;SDS011;17710;52.520;13.352;2022-11-20T00:46:28;14.80;;;9.23;;
31043;SDS011;17710;52.520;13.352;2022-11-20T00:48:55;15.65;;;9.32;;
31043;SDS011;17710;52.520;13.352;2022-11-20T00:51:22;15.32;;;9.38;;
31043;SDS011;17710;52.520;13.352;2022-11-20T00:53:51;16.60;;;8.82;;
31043;SDS011;17710;52.520;13.352;2022-11-20T00:56:18;15.55;;;9.05;;
31043;SDS011;17710;52.520;13.352;2022-11-20T00:58:47;17.83;;;9.38;;
31043;SDS011;17710;52.520;13.352;2022-11-20T01:01:15;16.00;;;8.93;;
31043;SDS011;17710;52.520;13.352;2022-11-20T01:03:44;15.93;;;8.88;;
31043;SDS011;17710;52.520;13.352;2022-11-20T01:06:12;16.48;;;8.95;;
31043;SDS011;17710;52.520;13.352;2022-11-20T01:08:40;17.95;;;9.02;;
31043;SDS011;17710;52.520;13.352;2022-11-20T01:11:08;14.55;;;8.55;;
31043;SDS011;17710;52.520;13.352;2022-11-20T01:13:36;15.13;;;9.23;;
31043;SDS011;17710;52.520;13.352;2022-11-20T01:16:05;16.27;;;9.00;;
31043;SDS011;17710;52.520;13.352;2022-11-20T01:18:32;17.77;;;9.18;;
31043;SDS011;17710;52.520;13.352;2022-11-20T01:21:00;16.38;;;8.55;;
31043;SDS011;17710;52.520;13.352;2022-11-20T01:23:31;16.58;;;9.10;;
31043;SDS011;17710;52.520;13.352;2022-11-20T01:26:01;20.45;;;9.50;;
31043;SDS011;17710;52.520;13.352;2022-11-20T01:28:29;17.88;;;9.65;;
31043;SDS011;17710;52.520;13.352;2022-11-20T01:30:59;17.38;;;8.98;;
31043;SDS011;17710;52.520;13.352;2022-11-20T01:33:27;17.83;;;9.52;;
31043;SDS011;17710;52.520;13.352;2022-11-20T01:36:02;13.00;;;8.68;;
31043;SDS011;17710;52.520;13.352;2022-11-20T01:38:29;15.82;;;9.50;;
31043;SDS011;17710;52.520;13.352;2022-11-20T01:40:56;16.63;;;9.45;;
31043;SDS011;17710;52.520;13.352;2022-11-20T01:43:22;15.27;;;8.82;;
31043;SDS011;17710;52.520;13.352;2022-11-20T01:46:00;18.50;;;9.52;;
31043;SDS011;17710;52.520;13.352;2022-11-20T01:48:31;17.67;;;9.95;;
31043;SDS011;17710;52.520;13.352;2022-11-20T01:51:02;15.05;;;9.52;;
31043;SDS011;17710;52.520;13.352;2022-11-20T01:53:30;18.40;;;10.15;;
31043;SDS011;17710;52.520;13.352;2022-11-20T01:56:00;16.90;;;9.52;;
31043;SDS011;17710;52.520;13.352;2022-11-20T01:58:30;17.35;;;10.32;;
31043;SDS011;17710;52.520;13.352;2022-11-20T02:00:59;17.85;;;10.05;;
31043;SDS011;17710;52.520;13.352;2022-11-20T02:03:26;15.88;;;9.75;;
31043;SDS011;17710;52.520;13.352;2022-11-20T02:05:55;20.40;;;10.88;;
31043;SDS011;17710;52.520;13.352;2022-11-20T02:08:27;18.10;;;10.65;;
31043;SDS011;17710;52.520;13.352;2022-11-20T02:10:54;16.63;;;9.77;;
31043;SDS011;17710;52.520;13.352;2022-11-20T02:13:21;18.30;;;10.52;;
31043;SDS011;17710;52.520;13.352;2022-11-20T02:16:05;17.58;;;9.70;;
31043;SDS011;17710;52.520;13.352;2022-11-20T02:18:36;21.90;;;11.18;;
31043;SDS011;17710;52.520;13.352;2022-11-20T02:21:05;21.95;;;11.27;;
31043;SDS011;17710;52.520;13.352;2022-11-20T02:23:36;19.67;;;10.45;;
31043;SDS011;17710;52.520;13.352;2022-11-20T02:26:07;18.55;;;10.65;;
31043;SDS011;17710;52.520;13.352;2022-11-20T02:28:37;19.38;;;10.13;;
31043;SDS011;17710;52.520;13.352;2022-11-20T02:31:04;21.70;;;10.38;;
31043;SDS011;17710;52.520;13.352;2022-11-20T02:33:30;21.90;;;11.27;;
31043;SDS011;17710;52.520;13.352;2022-11-20T02:35:57;20.30;;;11.07;;
31043;SDS011;17710;52.520;13.352;2022-11-20T02:38:23;20.33;;;10.95;;
31043;SDS011;17710;52.520;13.352;2022-11-20T02:40:50;19.10;;;10.63;;
31043;SDS011;17710;52.520;13.352;2022-11-20T02:43:17;20.27;;;11.27;;
31043;SDS011;17710;52.520;13.352;2022-11-20T02:45:44;19.08;;;11.07;;
31043;SDS011;17710;52.520;13.352;2022-11-20T02:48:10;20.77;;;10.98;;
31043;SDS011;17710;52.520;13.352;2022-11-20T02:50:37;20.10;;;10.75;;
31043;SDS011;17710;52.520;13.352;2022-11-20T02:53:05;20.02;;;10.25;;
31043;SDS011;17710;52.520;13.352;2022-11-20T02:55:32;19.67;;;11.63;;
31043;SDS011;17710;52.520;13.352;2022-11-20T02:57:59;19.63;;;11.27;;
31043;SDS011;17710;52.520;13.352;2022-11-20T03:00:27;19.20;;;10.70;;
31043;SDS011;17710;52.520;13.352;2022-11-20T03:02:53;19.08;;;10.90;;
31043;SDS011;17710;52.520;13.352;2022-11-20T03:05:21;22.90;;;11.68;;
31043;SDS011;17710;52.520;13.352;2022-11-20T03:07:48;20.52;;;11.15;;
31043;SDS011;17710;52.520;13.352;2022-11-20T03:10:15;20.98;;;10.93;;
31043;SDS011;17710;52.520;13.352;2022-11-20T03:12:41;21.90;;;11.85;;
31043;SDS011;17710;52.520;13.352;2022-11-20T03:15:08;19.90;;;11.15;;
31043;SDS011;17710;52.520;13.352;2022-11-20T03:17:37;20.27;;;11.23;;
31043;SDS011;17710;52.520;13.352;2022-11-20T03:20:04;20.75;;;11.80;;
31043;SDS011;17710;52.520;13.352;2022-11-20T03:22:31;27.50;;;11.52;;
31043;SDS011;17710;52.520;13.352;2022-11-20T03:24:58;20.58;;;11.18;;
31043;SDS011;17710;52.520;13.352;2022-11-20T03:27:24;20.10;;;10.75;;
31043;SDS011;17710;52.520;13.352;2022-11-20T03:29:51;21.05;;;11.95;;
31043;SDS011;17710;52.520;13.352;2022-11-20T03:32:17;21.33;;;11.98;;
31043;SDS011;17710;52.520;13.352;2022-11-20T03:34:45;21.33;;;12.10;;
31043;SDS011;17710;52.520;13.352;2022-11-20T03:37:12;19.92;;;11.10;;
31043;SDS011;17710;52.520;13.352;2022-11-20T03:39:38;23.33;;;12.77;;
31043;SDS011;17710;52.520;13.352;2022-11-20T03:42:04;21.00;;;12.25;;
31043;SDS011;17710;52.520;13.352;2022-11-20T03:44:51;21.00;;;11.60;;
31043;SDS011;17710;52.520;13.352;2022-11-20T03:47:18;18.95;;;10.75;;
31043;SDS011;17710;52.520;13.352;2022-11-20T03:49:45;21.17;;;11.38;;
31043;SDS011;17710;52.520;13.352;2022-11-20T03:52:12;22.88;;;11.45;;
31043;SDS011;17710;52.520;13.352;2022-11-20T03:54:38;21.67;;;11.98;;
31043;SDS011;17710;52.520;13.352;2022-11-20T03:57:05;22.55;;;11.48;;
31043;SDS011;17710;52.520;13.352;2022-11-20T03:59:31;21.02;;;11.32;;
31043;SDS011;17710;52.520;13.352;2022-11-20T04:01:58;21.35;;;11.80;;
31043;SDS011;17710;52.520;13.352;2022-11-20T04:04:24;20.20;;;11.40;;
31043;SDS011;17710;52.520;13.352;2022-11-20T04:06:52;23.23;;;12.40;;
31043;SDS011;17710;52.520;13.352;2022-11-20T04:09:19;24.92;;;11.90;;
31043;SDS011;17710;52.520;13.352;2022-11-20T04:11:45;20.88;;;11.98;;
31043;SDS011;17710;52.520;13.352;2022-11-20T04:14:13;24.08;;;12.07;;
31043;SDS011;17710;52.520;13.352;2022-11-20T04:16:41;22.95;;;12.45;;
31043;SDS011;17710;52.520;13.352;2022-11-20T04:19:09;21.85;;;12.18;;
31043;SDS011;17710;52.520;13.352;2022-11-20T04:21:37;17.63;;;10.52;;
31043;SDS011;17710;52.520;13.352;2022-11-20T04:24:05;20.33;;;10.98;;
31043;SDS011;17710;52.520;13.352;2022-11-20T04:26:33;20.70;;;11.40;;
31043;SDS011;17710;52.520;13.352;2022-11-20T04:29:00;25.13;;;12.63;;
31043;SDS011;17710;52.520;13.352;2022-11-20T04:31:28;24.65;;;11.20;;
31043;SDS011;17710;52.520;13.352;2022-11-20T04:33:55;19.88;;;11.13;;
31043;SDS011;17710;52.520;13.352;2022-11-20T04:36:27;21.85;;;11.57;;
31043;SDS011;17710;52.520;13.352;2022-11-20T04:38:58;21.40;;;11.82;;
31043;SDS011;17710;52.520;13.352;2022-11-20T04:41:28;22.38;;;11.95;;
31043;SDS011;17710;52.520;13.352;2022-11-20T04:43:57;22.00;;;12.25;;
31043;SDS011;17710;52.520;13.352;2022-11-20T04:46:27;23.30;;;12.18;;
31043;SDS011;17710;52.520;13.352;2022-11-20T04:48:54;19.98;;;11.82;;
31043;SDS011;17710;52.520;13.352;2022-11-20T04:51:21;22.90;;;11.45;;
31043;SDS011;17710;52.520;13.352;2022-11-20T04:53:48;21.73;;;11.43;;
31043;SDS011;17710;52.520;13.352;2022-11-20T04:56:15;20.45;;;11.93;;
31043;SDS011;17710;52.520;13.352;2022-11-20T04:58:43;20.15;;;11.95;;
31043;SDS011;17710;52.520;13.352;2022-11-20T05:01:10;20.98;;;11.73;;
31043;SDS011;17710;52.520;13.352;2022-11-20T05:03:41;21.05;;;11.43;;
31043;SDS011;17710;52.520;13.352;2022-11-20T05:06:09;21.55;;;11.90;;
31043;SDS011;17710;52.520;13.352;2022-11-20T05:08:37;20.60;;;11.57;;
31043;SDS011;17710;52.520;13.352;2022-11-20T05:11:05;23.35;;;11.57;;
31043;SDS011;17710;52.520;13.352;2022-11-20T05:13:33;21.35;;;11.80;;
31043;SDS011;17710;52.520;13.352;2022-11-20T05:16:04;22.77;;;11.73;;
31043;SDS011;17710;52.520;13.352;2022-11-20T05:18:32;19.95;;;11.50;;
31043;SDS011;17710;52.520;13.352;2022-11-20T05:20:59;23.02;;;11.93;;
31043;SDS011;17710;52.520;13.352;2022-11-20T05:23:27;19.95;;;11.23;;
31043;SDS011;17710;52.520;13.352;2022-11-20T05:25:55;23.13;;;12.40;;
31043;SDS011;17710;52.520;13.352;2022-11-20T05:28:22;22.90;;;12.05;;
31043;SDS011;17710;52.520;13.352;2022-11-20T05:30:50;17.98;;;10.88;;
31043;SDS011;17710;52.520;13.352;2022-11-20T05:33:18;24.52;;;12.60;;
31043;SDS011;17710;52.520;13.352;2022-11-20T05:35:45;21.85;;;11.60;;
31043;SDS011;17710;52.520;13.352;2022-11-20T05:38:11;20.67;;;12.30;;
31043;SDS011;17710;52.520;13.352;2022-11-20T05:40:37;18.63;;;10.77;;
31043;SDS011;17710;52.520;13.352;2022-11-20T05:43:04;20.20;;;11.77;;
31043;SDS011;17710;52.520;13.352;2022-11-20T05:45:30;20.67;;;11.38;;
31043;SDS011;17710;52.520;13.352;2022-11-20T05:47:57;20.92;;;11.23;;
31043;SDS011;17710;52.520;13.352;2022-11-20T05:50:26;24.75;;;12.63;;
31043;SDS011;17710;52.520;13.352;2022-11-20T05:52:53;20.80;;;11.75;;
31043;SDS011;17710;52.520;13.352;2022-11-20T05:55:19;20.55;;;11.45;;
31043;SDS011;17710;52.520;13.352;2022-11-20T05:57:46;21.88;;;11.80;;
31043;SDS011;17710;52.520;13.352;2022-11-20T06:00:13;17.33;;;11.10;;
31043;SDS011;17710;52.520;13.352;2022-11-20T06:02:43;21.10;;;12.00;;
31043;SDS011;17710;52.520;13.352;2022-11-20T06:05:10;23.25;;;11.32;;
31043;SDS011;17710;52.520;13.352;2022-11-20T06:07:38;18.83;;;11.60;;
31043;SDS011;17710;52.520;13.352;2022-11-20T06:10:04;22.48;;;12.05;;
31043;SDS011;17710;52.520;13.352;2022-11-20T06:12:31;23.33;;;11.65;;
31043;SDS011;17710;52.520;13.352;2022-11-20T06:14:58;20.70;;;12.20;;
31043;SDS011;17710;52.520;13.352;2022-11-20T06:17:25;21.92;;;11.70;;
31043;SDS011;17710;52.520;13.352;2022-11-20T06:19:52;24.33;;;11.63;;
31043;SDS011;17710;52.520;13.352;2022-11-20T06:22:18;24.50;;;12.30;;
31043;SDS011;17710;52.520;13.352;2022-11-20T06:24:46;21.23;;;11.20;;
31043;SDS011;17710;52.520;13.352;2022-11-20T06:27:13;20.95;;;12.13;;
31043;SDS011;17710;52.520;13.352;2022-11-20T06:29:39;23.02;;;11.73;;
31043;SDS011;17710;52.520;13.352;2022-11-20T06:32:09;19.10;;;11.48;;
31043;SDS011;17710;52.520;13.352;2022-11-20T06:34:35;22.73;;;12.07;;
31043;SDS011;17710;52.520;13.352;2022-11-20T06:37:02;23.27;;;11.85;;
31043;SDS011;17710;52.520;13.352;2022-11-20T06:39:28;26.25;;;12.38;;
31043;SDS011;17710;52.520;13.352;2022-11-20T06:41:56;22.50;;;12.65;;
31043;SDS011;17710;52.520;13.352;2022-11-20T06:44:23;21.48;;;11.63;;
31043;SDS011;17710;52.520;13.352;2022-11-20T06:46:49;22.83;;;12.55;;
31043;SDS011;17710;52.520;13.352;2022-11-20T06:49:16;24.80;;;12.52;;
31043;SDS011;17710;52.520;13.352;2022-11-20T06:51:42;22.38;;;13.07;;
31043;SDS011;17710;52.520;13.352;2022-11-20T06:54:09;24.05;;;11.77;;
31043;SDS011;17710;52.520;13.352;2022-11-20T06:56:37;22.75;;;12.32;;
31043;SDS011;17710;52.520;13.352;2022-11-20T06:59:05;24.38;;;13.02;;
31043;SDS011;17710;52.520;13.352;2022-11-20T07:01:33;23.02;;;11.95;;
31043;SDS011;17710;52.520;13.352;2022-11-20T07:03:59;20.88;;;11.88;;
31043;SDS011;17710;52.520;13.352;2022-11-20T07:06:26;24.25;;;12.07;;
31043;SDS011;17710;52.520;13.352;2022-11-20T07:08:53;25.00;;;13.23;;
31043;SDS011;17710;52.520;13.352;2022-11-20T07:11:19;21.00;;;12.10;;
31043;SDS011;17710;52.520;13.352;2022-11-20T07:13:46;23.00;;;12.52;;
31043;SDS011;17710;52.520;13.352;2022-11-20T07:16:15;22.25;;;12.55;;
31043;SDS011;17710;52.520;13.352;2022-11-20T07:18:42;22.25;;;11.60;;
31043;SDS011;17710;52.520;13.352;2022-11-20T07:21:09;21.20;;;11.68;;
31043;SDS011;17710;52.520;13.352;2022-11-20T07:23:40;20.60;;;11.88;;
31043;SDS011;17710;52.520;13.352;2022-11-20T07:26:10;22.58;;;13.00;;
31043;SDS011;17710;52.520;13.352;2022-11-20T07:28:37;21.27;;;12.60;;
31043;SDS011;17710;52.520;13.352;2022-11-20T07:31:04;25.90;;;12.27;;
31043;SDS011;17710;52.520;13.352;2022-11-20T07:33:33;24.15;;;11.88;;
31043;SDS011;17710;52.520;13.352;2022-11-20T07:35:59;22.60;;;12.85;;
31043;SDS011;17710;52.520;13.352;2022-11-20T07:38:27;23.35;;;12.80;;
31043;SDS011;17710;52.520;13.352;2022-11-20T07:40:53;21.50;;;12.85;;
31043;SDS011;17710;52.520;13.352;2022-11-20T07:43:21;26.40;;;12.85;;
31043;SDS011;17710;52.520;13.352;2022-11-20T07:45:47;22.08;;;12.40;;
31043;SDS011;17710;52.520;13.352;2022-11-20T07:48:14;23.45;;;13.32;;
31043;SDS011;17710;52.520;13.352;2022-11-20T07:50:42;24.05;;;12.65;;
31043;SDS011;17710;52.520;13.352;2022-11-20T07:53:08;23.88;;;13.30;;
31043;SDS011;17710;52.520;13.352;2022-11-20T07:55:34;23.95;;;13.13;;
31043;SDS011;17710;52.520;13.352;2022-11-20T07:58:01;27.20;;;12.95;;
31043;SDS011;17710;52.520;13.352;2022-11-20T08:00:27;20.15;;;12.23;;
31043;SDS011;17710;52.520;13.352;2022-11-20T08:02:54;22.30;;;12.93;;
31043;SDS011;17710;52.520;13.352;2022-11-20T08:05:21;22.33;;;12.68;;
31043;SDS011;17710;52.520;13.352;2022-11-20T08:07:49;24.83;;;13.48;;
31043;SDS011;17710;52.520;13.352;2022-11-20T08:10:15;21.90;;;13.32;;
31043;SDS011;17710;52.520;13.352;2022-11-20T08:12:46;23.00;;;12.65;;
31043;SDS011;17710;52.520;13.352;2022-11-20T08:15:30;24.33;;;13.18;;
31043;SDS011;17710;52.520;13.352;2022-11-20T08:18:01;24.42;;;12.50;;
31043;SDS011;17710;52.520;13.352;2022-11-20T08:20:28;23.23;;;13.23;;
31043;SDS011;17710;52.520;13.352;2022-11-20T08:22:59;25.05;;;13.38;;
31043;SDS011;17710;52.520;13.352;2022-11-20T08:25:27;29.00;;;13.88;;
31043;SDS011;17710;52.520;13.352;2022-11-20T08:27:56;23.38;;;12.93;;
31043;SDS011;17710;52.520;13.352;2022-11-20T08:30:30;22.47;;;13.87;;
31043;SDS011;17710;52.520;13.352;2022-11-20T08:33:00;25.60;;;13.52;;
31043;SDS011;17710;52.520;13.352;2022-11-20T08:35:28;23.75;;;13.20;;
31043;SDS011;17710;52.520;13.352;2022-11-20T08:37:59;25.92;;;12.30;;
31043;SDS011;17710;52.520;13.352;2022-11-20T08:40:26;27.58;;;13.38;;
31043;SDS011;17710;52.520;13.352;2022-11-20T08:42:52;25.25;;;13.02;;
31043;SDS011;17710;52.520;13.352;2022-11-20T08:45:19;24.05;;;13.05;;
31043;SDS011;17710;52.520;13.352;2022-11-20T08:47:45;26.05;;;12.93;;
31043;SDS011;17710;52.520;13.352;2022-11-20T08:50:13;21.42;;;12.32;;
31043;SDS011;17710;52.520;13.352;2022-11-20T08:52:41;23.83;;;13.07;;
31043;SDS011;17710;52.520;13.352;2022-11-20T08:55:09;22.63;;;13.32;;
31043;SDS011;17710;52.520;13.352;2022-11-20T08:57:36;24.85;;;12.93;;
31043;SDS011;17710;52.520;13.352;2022-11-20T09:00:04;25.58;;;13.35;;
31043;SDS011;17710;52.520;13.352;2022-11-20T09:02:32;26.45;;;13.88;;
31043;SDS011;17710;52.520;13.352;2022-11-20T09:04:59;21.10;;;12.27;;
31043;SDS011;17710;52.520;13.352;2022-11-20T09:07:27;23.40;;;12.20;;
31043;SDS011;17710;52.520;13.352;2022-11-20T09:09:54;22.65;;;12.57;;
31043;SDS011;17710;52.520;13.352;2022-11-20T09:12:21;22.27;;;11.52;;
31043;SDS011;17710;52.520;13.352;2022-11-20T09:14:48;37.72;;;17.98;;
31043;SDS011;17710;52.520;13.352;2022-11-20T09:17:15;25.75;;;13.23;;
31043;SDS011;17710;52.520;13.352;2022-11-20T09:19:42;25.40;;;12.98;;
31043;SDS011;17710;52.520;13.352;2022-11-20T09:22:11;26.65;;;12.05;;
31043;SDS011;17710;52.520;13.352;2022-11-20T09:24:40;24.65;;;12.77;;
31043;SDS011;17710;52.520;13.352;2022-11-20T09:27:07;23.35;;;12.60;;
31043;SDS011;17710;52.520;13.352;2022-11-20T09:29:35;22.63;;;12.68;;
31043;SDS011;17710;52.520;13.352;2022-11-20T09:32:06;23.27;;;13.00;;
31043;SDS011;17710;52.520;13.352;2022-11-20T09:34:33;19.98;;;12.23;;
31043;SDS011;17710;52.520;13.352;2022-11-20T09:36:59;25.60;;;12.43;;
31043;SDS011;17710;52.520;13.352;2022-11-20T09:39:26;23.10;;;12.35;;
31043;SDS011;17710;52.520;13.352;2022-11-20T09:42:02;23.83;;;12.88;;
31043;SDS011;17710;52.520;13.352;2022-11-20T09:44:48;53.28;;;24.27;;
31043;SDS011;17710;52.520;13.352;2022-11-20T09:47:22;24.60;;;12.82;;
31043;SDS011;17710;52.520;13.352;2022-11-20T09:50:02;25.08;;;13.00;;
31043;SDS011;17710;52.520;13.352;2022-11-20T09:52:44;23.15;;;13.15;;
31043;SDS011;17710;52.520;13.352;2022-11-20T09:55:19;22.50;;;12.52;;
31043;SDS011;17710;52.520;13.352;2022-11-20T09:57:47;21.63;;;12.35;;
31043;SDS011;17710;52.520;13.352;2022-11-20T10:00:19;21.95;;;12.43;;
31043;SDS011;17710;52.520;13.352;2022-11-20T10:02:47;21.95;;;11.77;;
31043;SDS011;17710;52.520;13.352;2022-11-20T10:05:19;19.02;;;11.57;;
31043;SDS011;17710;52.520;13.352;2022-11-20T10:07:51;20.17;;;11.40;;
31043;SDS011;17710;52.520;13.352;2022-11-20T10:10:25;23.20;;;12.20;;
31043;SDS011;17710;52.520;13.352;2022-11-20T10:13:13;23.40;;;12.55;;
31043;SDS011;17710;52.520;13.352;2022-11-20T10:15:53;23.00;;;11.20;;
31043;SDS011;17710;52.520;13.352;2022-11-20T10:18:31;23.25;;;12.40;;
31043;SDS011;17710;52.520;13.352;2022-11-20T10:21:08;20.08;;;11.30;;
31043;SDS011;17710;52.520;13.352;2022-11-20T10:23:46;20.73;;;11.82;;
31043;SDS011;17710;52.520;13.352;2022-11-20T10:26:37;19.92;;;11.88;;
31043;SDS011;17710;52.520;13.352;2022-11-20T10:29:10;20.95;;;11.40;;
31043;SDS011;17710;52.520;13.352;2022-11-20T10:31:40;22.08;;;12.95;;
31043;SDS011;17710;52.520;13.352;2022-11-20T10:34:15;25.35;;;12.43;;
31043;SDS011;17710;52.520;13.352;2022-11-20T10:36:47;22.55;;;12.75;;
31043;SDS011;17710;52.520;13.352;2022-11-20T10:39:20;21.30;;;12.15;;
31043;SDS011;17710;52.520;13.352;2022-11-20T10:41:53;19.33;;;10.80;;
31043;SDS011;17710;52.520;13.352;2022-11-20T10:44:25;20.15;;;11.85;;
31043;SDS011;17710;52.520;13.352;2022-11-20T10:47:13;17.15;;;10.88;;
31043;SDS011;17710;52.520;13.352;2022-11-20T10:49:41;21.58;;;11.60;;
31043;SDS011;17710;52.520;13.352;2022-11-20T10:52:10;20.73;;;11.40;;
31043;SDS011;17710;52.520;13.352;2022-11-20T10:54:44;22.25;;;11.57;;
31043;SDS011;17710;52.520;13.352;2022-11-20T10:57:31;17.88;;;11.18;;
31043;SDS011;17710;52.520;13.352;2022-11-20T11:00:13;19.85;;;11.38;;
31043;SDS011;17710;52.520;13.352;2022-11-20T11:02:44;19.95;;;12.30;;
31043;SDS011;17710;52.520;13.352;2022-11-20T11:05:16;22.92;;;13.20;;
31043;SDS011;17710;52.520;13.352;2022-11-20T11:07:48;22.42;;;10.57;;
31043;SDS011;17710;52.520;13.352;2022-11-20T11:10:17;19.55;;;11.30;;
31043;SDS011;17710;52.520;13.352;2022-11-20T11:12:47;25.90;;;12.20;;
31043;SDS011;17710;52.520;13.352;2022-11-20T11:15:15;18.52;;;11.55;;
31043;SDS011;17710;52.520;13.352;2022-11-20T11:17:53;21.30;;;11.85;;
31043;SDS011;17710;52.520;13.352;2022-11-20T11:20:20;17.75;;;10.65;;
31043;SDS011;17710;52.520;13.352;2022-11-20T11:22:48;19.73;;;11.27;;
31043;SDS011;17710;52.520;13.352;2022-11-20T11:25:20;19.67;;;10.90;;
31043;SDS011;17710;52.520;13.352;2022-11-20T11:27:54;19.35;;;10.43;;
31043;SDS011;17710;52.520;13.352;2022-11-20T11:30:23;18.30;;;10.48;;
31043;SDS011;17710;52.520;13.352;2022-11-20T11:33:03;18.17;;;10.25;;
31043;SDS011;17710;52.520;13.352;2022-11-20T11:35:31;21.88;;;10.85;;
31043;SDS011;17710;52.520;13.352;2022-11-20T11:38:02;16.23;;;9.50;;
31043;SDS011;17710;52.520;13.352;2022-11-20T11:40:30;18.25;;;10.25;;
31043;SDS011;17710;52.520;13.352;2022-11-20T11:42:59;19.48;;;10.57;;
31043;SDS011;17710;52.520;13.352;2022-11-20T11:45:28;18.58;;;10.73;;
31043;SDS011;17710;52.520;13.352;2022-11-20T11:50:24;17.38;;;9.60;;
31043;SDS011;17710;52.520;13.352;2022-11-20T11:53:04;16.95;;;10.05;;
31043;SDS011;17710;52.520;13.352;2022-11-20T11:55:36;16.85;;;9.65;;
31043;SDS011;17710;52.520;13.352;2022-11-20T11:58:09;19.92;;;9.70;;
31043;SDS011;17710;52.520;13.352;2022-11-20T12:00:41;16.10;;;8.90;;
31043;SDS011;17710;52.520;13.352;2022-11-20T12:03:18;17.77;;;10.25;;
31043;SDS011;17710;52.520;13.352;2022-11-20T12:05:50;19.33;;;9.57;;
31043;SDS011;17710;52.520;13.352;2022-11-20T12:08:23;16.20;;;9.43;;
31043;SDS011;17710;52.520;13.352;2022-11-20T12:10:55;17.08;;;9.57;;
31043;SDS011;17710;52.520;13.352;2022-11-20T12:13:27;17.10;;;9.65;;
31043;SDS011;17710;52.520;13.352;2022-11-20T12:16:01;15.93;;;9.48;;
31043;SDS011;17710;52.520;13.352;2022-11-20T12:18:28;16.38;;;9.27;;
31043;SDS011;17710;52.520;13.352;2022-11-20T12:21:02;18.38;;;9.50;;
31043;SDS011;17710;52.520;13.352;2022-11-20T12:23:36;14.05;;;8.60;;
31043;SDS011;17710;52.520;13.352;2022-11-20T12:26:14;17.83;;;8.95;;
31043;SDS011;17710;52.520;13.352;2022-11-20T12:28:52;18.45;;;8.77;;
31043;SDS011;17710;52.520;13.352;2022-11-20T12:34:23;14.02;;;8.50;;
31043;SDS011;17710;52.520;13.352;2022-11-20T12:37:02;14.95;;;8.65;;
31043;SDS011;17710;52.520;13.352;2022-11-20T12:39:40;12.63;;;7.63;;
31043;SDS011;17710;52.520;13.352;2022-11-20T12:45:29;14.32;;;7.45;;
31043;SDS011;17710;52.520;13.352;2022-11-20T12:48:12;12.07;;;7.38;;
31043;SDS011;17710;52.520;13.352;2022-11-20T12:50:56;13.20;;;7.10;;
31043;SDS011;17710;52.520;13.352;2022-11-20T12:53:37;13.75;;;6.95;;
31043;SDS011;17710;52.520;13.352;2022-11-20T12:56:12;12.10;;;7.53;;
31043;SDS011;17710;52.520;13.352;2022-11-20T12:58:49;13.65;;;7.82;;
31043;SDS011;17710;52.520;13.352;2022-11-20T13:01:28;16.17;;;7.78;;
31043;SDS011;17710;52.520;13.352;2022-11-20T13:04:08;12.13;;;7.60;;
31043;SDS011;17710;52.520;13.352;2022-11-20T13:06:50;13.70;;;7.47;;
31043;SDS011;17710;52.520;13.352;2022-11-20T13:09:19;15.35;;;7.53;;
31043;SDS011;17710;52.520;13.352;2022-11-20T13:11:53;15.15;;;8.30;;
31043;SDS011;17710;52.520;13.352;2022-11-20T13:14:30;12.05;;;7.43;;
31043;SDS011;17710;52.520;13.352;2022-11-20T13:17:04;13.45;;;6.78;;
31043;SDS011;17710;52.520;13.352;2022-11-20T13:19:38;12.18;;;7.15;;
31043;SDS011;17710;52.520;13.352;2022-11-20T13:22:07;15.13;;;8.48;;
31043;SDS011;17710;52.520;13.352;2022-11-20T13:24:36;15.27;;;7.82;;
31043;SDS011;17710;52.520;13.352;2022-11-20T13:27:05;14.60;;;7.63;;
31043;SDS011;17710;52.520;13.352;2022-11-20T13:29:46;12.93;;;7.30;;
31043;SDS011;17710;52.520;13.352;2022-11-20T13:32:24;13.48;;;7.28;;
31043;SDS011;17710;52.520;13.352;2022-11-20T13:34:51;12.45;;;7.40;;
31043;SDS011;17710;52.520;13.352;2022-11-20T13:37:24;14.27;;;7.80;;
31043;SDS011;17710;52.520;13.352;2022-11-20T13:40:05;15.70;;;7.70;;
31043;SDS011;17710;52.520;13.352;2022-11-20T13:42:40;12.38;;;7.00;;
31043;SDS011;17710;52.520;13.352;2022-11-20T13:45:11;13.43;;;6.80;;
31043;SDS011;17710;52.520;13.352;2022-11-20T13:47:49;12.20;;;6.72;;
31043;SDS011;17710;52.520;13.352;2022-11-20T13:50:17;13.80;;;7.18;;
31043;SDS011;17710;52.520;13.352;2022-11-20T13:52:45;12.82;;;6.05;;
31043;SDS011;17710;52.520;13.352;2022-11-20T13:55:20;12.88;;;6.68;;
31043;SDS011;17710;52.520;13.352;2022-11-20T13:58:04;13.45;;;6.50;;
31043;SDS011;17710;52.520;13.352;2022-11-20T14:00:44;11.20;;;6.28;;
31043;SDS011;17710;52.520;13.352;2022-11-20T14:03:17;13.18;;;6.20;;
31043;SDS011;17710;52.520;13.352;2022-11-20T14:05:46;12.52;;;6.53;;
31043;SDS011;17710;52.520;13.352;2022-11-20T14:08:21;11.48;;;6.32;;
31043;SDS011;17710;52.520;13.352;2022-11-20T14:11:03;8.45;;;6.03;;
31043;SDS011;17710;52.520;13.352;2022-11-20T14:13:30;13.38;;;7.60;;
31043;SDS011;17710;52.520;13.352;2022-11-20T14:15:57;13.55;;;7.55;;
31043;SDS011;17710;52.520;13.352;2022-11-20T14:18:25;16.25;;;7.85;;
31043;SDS011;17710;52.520;13.352;2022-11-20T14:20:52;12.40;;;7.20;;
31043;SDS011;17710;52.520;13.352;2022-11-20T14:23:23;12.13;;;7.13;;
31043;SDS011;17710;52.520;13.352;2022-11-20T14:25:51;14.55;;;7.47;;
31043;SDS011;17710;52.520;13.352;2022-11-20T14:28:21;13.25;;;7.07;;
31043;SDS011;17710;52.520;13.352;2022-11-20T14:30:52;12.95;;;7.22;;
31043;SDS011;17710;52.520;13.352;2022-11-20T14:33:20;14.23;;;7.47;;
31043;SDS011;17710;52.520;13.352;2022-11-20T14:35:50;13.85;;;7.75;;